createdAt,value
2022-09-06T00:00:08.275Z,9.70
2022-09-06T00:02:43.472Z,9.59
2022-09-06T00:05:15.604Z,9.50
2022-09-06T00:07:47.917Z,9.41
2022-09-06T00:10:20.242Z,9.38
2022-09-06T00:12:52.388Z,9.41
2022-09-06T00:15:24.452Z,9.46
2022-09-06T00:17:57.871Z,9.50
2022-09-06T00:20:31.106Z,9.55
2022-09-06T00:23:05.771Z,9.61
2022-09-06T00:25:37.854Z,9.66
2022-09-06T00:28:09.945Z,9.70
2022-09-06T00:30:41.999Z,9.70
2022-09-06T00:33:15.383Z,9.68
2022-09-06T00:35:49.011Z,9.66
2022-09-06T00:38:21.241Z,9.63
2022-09-06T00:40:53.694Z,9.59
2022-09-06T00:43:26.188Z,9.51
2022-09-06T00:45:58.418Z,9.43
2022-09-06T00:48:30.578Z,9.38
2022-09-06T00:51:05.437Z,9.38
2022-09-06T00:53:37.427Z,9.41
2022-09-06T00:56:09.913Z,9.44
2022-09-06T00:58:42.148Z,9.49
2022-09-06T01:01:14.514Z,9.54
2022-09-06T01:03:46.535Z,9.53
2022-09-06T01:06:27.809Z,9.51
2022-09-06T01:09:22.289Z,9.48
2022-09-06T01:12:16.614Z,9.48
2022-09-06T01:15:03.524Z,9.50
2022-09-06T01:18:03.908Z,9.53
2022-09-06T01:20:42.010Z,9.57
2022-09-06T01:23:23.107Z,9.58
2022-09-06T01:26:00.940Z,9.61
2022-09-06T01:28:38.598Z,9.63
2022-09-06T01:31:28.514Z,9.64
2022-09-06T01:34:24.419Z,9.65
2022-09-06T01:37:10.390Z,9.67
2022-09-06T01:39:41.307Z,9.71
2022-09-06T01:42:22.426Z,9.72
2022-09-06T01:45:00.794Z,9.70
2022-09-06T01:47:40.130Z,9.67
2022-09-06T01:50:21.233Z,9.61
2022-09-06T01:53:05.295Z,9.55
2022-09-06T01:56:14.956Z,9.53
2022-09-06T01:59:04.855Z,9.50
2022-09-06T02:01:59.126Z,9.51
2022-09-06T02:04:36.868Z,9.52
2022-09-06T02:07:23.615Z,9.51
2022-09-06T02:10:16.623Z,9.48
2022-09-06T02:12:51.578Z,9.39
2022-09-06T02:15:26.577Z,9.31
2022-09-06T02:18:04.319Z,9.25
2022-09-06T02:20:39.392Z,9.23
2022-09-06T02:23:12.819Z,9.24
2022-09-06T02:25:50.909Z,9.25
2022-09-06T02:28:23.641Z,9.25
2022-09-06T02:30:58.674Z,9.28
2022-09-06T02:33:33.552Z,9.28
2022-09-06T02:36:08.690Z,9.29
2022-09-06T02:38:42.465Z,9.33
2022-09-06T02:41:18.547Z,9.35
2022-09-06T02:43:51.087Z,9.38
2022-09-06T02:46:24.502Z,9.42
2022-09-06T02:48:56.665Z,9.45
2022-09-06T02:51:28.822Z,9.45
2022-09-06T02:54:00.874Z,9.45
2022-09-06T02:56:33.866Z,9.49
2022-09-06T02:59:06.995Z,9.49
2022-09-06T03:01:39.349Z,9.48
2022-09-06T03:04:11.520Z,9.46
2022-09-06T03:06:43.577Z,9.48
2022-09-06T03:09:15.675Z,9.47
2022-09-06T03:11:47.958Z,9.48
2022-09-06T03:14:20.125Z,9.51
2022-09-06T03:16:52.203Z,9.57
2022-09-06T03:19:24.225Z,9.63
2022-09-06T03:21:56.241Z,9.66
2022-09-06T03:24:28.358Z,9.67
2022-09-06T03:27:00.390Z,9.71
2022-09-06T03:29:32.618Z,9.74
2022-09-06T03:32:04.783Z,9.77
2022-09-06T03:34:37.125Z,9.77
2022-09-06T03:37:09.171Z,9.80
2022-09-06T03:39:41.414Z,9.81
2022-09-06T03:42:13.517Z,9.78
2022-09-06T03:44:45.938Z,9.80
2022-09-06T03:47:19.719Z,9.79
2022-09-06T03:49:52.208Z,9.80
2022-09-06T03:52:24.519Z,9.79
2022-09-06T03:54:57.054Z,9.78
2022-09-06T03:57:29.047Z,9.78
2022-09-06T04:00:01.260Z,9.80
2022-09-06T04:02:35.148Z,9.86
2022-09-06T04:05:08.010Z,9.89
2022-09-06T04:07:40.384Z,9.93
2022-09-06T04:10:12.851Z,9.97
2022-09-06T04:12:46.863Z,10.02
2022-09-06T04:15:18.982Z,10.01
2022-09-06T04:17:51.712Z,10.03
2022-09-06T04:20:24.624Z,10.02
2022-09-06T04:22:56.847Z,10.04
2022-09-06T04:25:28.822Z,10.06
2022-09-06T04:28:01.077Z,10.15
2022-09-06T04:30:33.347Z,10.22
2022-09-06T04:33:05.843Z,10.25
2022-09-06T04:35:38.902Z,10.23
2022-09-06T04:38:11.411Z,10.24
2022-09-06T04:40:43.677Z,10.22
2022-09-06T04:43:16.350Z,10.25
2022-09-06T04:45:48.736Z,10.25
2022-09-06T04:48:21.321Z,10.28
2022-09-06T04:50:53.353Z,10.29
2022-09-06T04:53:25.378Z,10.33
2022-09-06T04:55:59.386Z,10.41
2022-09-06T04:58:31.414Z,10.49
2022-09-06T05:01:04.011Z,10.60
2022-09-06T05:03:36.361Z,10.71
2022-09-06T05:06:11.127Z,10.74
2022-09-06T05:08:43.763Z,10.82
2022-09-06T05:11:16.519Z,10.86
2022-09-06T05:13:50.518Z,10.89
2022-09-06T05:16:23.186Z,10.98
2022-09-06T05:18:55.922Z,11.14
2022-09-06T05:21:28.469Z,11.29
2022-09-06T05:24:00.696Z,11.46
2022-09-06T05:26:32.761Z,11.59
2022-09-06T05:29:04.961Z,11.68
2022-09-06T05:31:37.771Z,11.74
2022-09-06T05:34:10.627Z,11.83
2022-09-06T05:36:42.829Z,11.88
2022-09-06T05:39:15.168Z,11.95
2022-09-06T05:41:47.577Z,12.01
2022-09-06T05:44:21.039Z,12.06
2022-09-06T05:46:53.740Z,12.06
2022-09-06T05:49:26.109Z,12.05
2022-09-06T05:51:58.954Z,11.99
2022-09-06T05:54:30.977Z,11.88
2022-09-06T05:57:03.512Z,11.82
2022-09-06T05:59:35.910Z,11.81
2022-09-06T06:02:08.143Z,11.88
2022-09-06T06:04:40.287Z,11.92
2022-09-06T06:07:12.551Z,11.96
2022-09-06T06:09:44.985Z,12.05
2022-09-06T06:12:17.087Z,12.16
2022-09-06T06:14:49.168Z,12.22
2022-09-06T06:17:21.691Z,12.30
2022-09-06T06:19:54.793Z,12.36
2022-09-06T06:22:26.925Z,12.44
2022-09-06T06:24:59.116Z,12.53
2022-09-06T06:27:34.990Z,12.72
2022-09-06T06:30:08.283Z,13.00
2022-09-06T06:32:40.685Z,12.96
2022-09-06T06:35:12.860Z,12.84
2022-09-06T06:37:45.972Z,12.75
2022-09-06T06:40:18.247Z,12.53
2022-09-06T06:42:50.758Z,12.32
2022-09-06T06:45:22.932Z,12.23
2022-09-06T06:47:55.113Z,12.20
2022-09-06T06:50:27.694Z,12.20
2022-09-06T06:52:59.829Z,12.44
2022-09-06T06:55:32.087Z,12.54
2022-09-06T06:58:04.706Z,12.65
2022-09-06T07:00:37.337Z,12.73
2022-09-06T07:03:10.449Z,12.77
2022-09-06T07:08:21.696Z,12.88
2022-09-06T07:10:53.765Z,13.16
2022-09-06T07:13:25.972Z,13.35
2022-09-06T07:16:13.661Z,13.40
2022-09-06T07:18:46.201Z,13.49
2022-09-06T07:24:11.346Z,13.55
2022-09-06T07:26:32.135Z,13.59
2022-09-06T07:29:06.599Z,13.77
2022-09-06T07:34:14.624Z,14.07
2022-09-06T07:36:46.924Z,13.97
2022-09-06T07:39:19.580Z,13.92
2022-09-06T07:41:51.891Z,13.82
2022-09-06T07:44:24.179Z,13.80
2022-09-06T07:49:34.748Z,13.95
2022-09-06T07:54:39.222Z,14.05
2022-09-06T07:57:12.251Z,14.05
2022-09-06T07:59:44.790Z,13.85
2022-09-06T08:02:18.041Z,13.59
2022-09-06T08:04:51.685Z,13.14
2022-09-06T08:07:40.445Z,12.75
2022-09-06T08:09:58.779Z,12.59
2022-09-06T08:12:30.992Z,12.56
2022-09-06T08:15:03.542Z,12.65
2022-09-06T08:17:36.654Z,12.92
2022-09-06T08:20:09.494Z,13.08
2022-09-06T08:22:42.116Z,13.36
2022-09-06T08:25:14.419Z,13.72
2022-09-06T08:27:46.685Z,13.78
2022-09-06T08:30:18.885Z,13.70
2022-09-06T08:32:52.101Z,13.55
2022-09-06T08:35:24.829Z,13.49
2022-09-06T08:38:01.276Z,13.46
2022-09-06T08:40:34.317Z,13.61
2022-09-06T08:43:08.164Z,13.78
2022-09-06T08:45:42.460Z,13.90
2022-09-06T08:48:14.867Z,14.11
2022-09-06T08:50:50.176Z,14.23
2022-09-06T08:53:22.624Z,14.26
2022-09-06T08:55:57.894Z,14.48
2022-09-06T08:58:45.783Z,14.73
2022-09-06T09:01:25.479Z,14.91
2022-09-06T09:04:00.054Z,15.10
2022-09-06T09:06:33.269Z,15.23
2022-09-06T09:09:09.931Z,15.55
2022-09-06T09:11:48.290Z,15.03
2022-09-06T09:14:33.746Z,14.73
2022-09-06T09:17:08.737Z,14.66
2022-09-06T09:19:43.081Z,14.81
2022-09-06T09:22:18.201Z,14.81
2022-09-06T09:24:51.974Z,14.70
2022-09-06T09:27:26.903Z,14.64
2022-09-06T09:32:38.072Z,14.79
2022-09-06T09:35:22.375Z,14.94
2022-09-06T09:38:10.845Z,15.17
2022-09-06T09:40:52.253Z,15.14
2022-09-06T09:43:29.635Z,14.70
2022-09-06T09:46:16.926Z,14.13
2022-09-06T09:49:10.440Z,13.57
2022-09-06T09:51:48.128Z,13.26
2022-09-06T09:54:23.466Z,13.28
2022-09-06T09:56:58.099Z,13.47
2022-09-06T09:59:30.777Z,13.79
2022-09-06T10:02:05.387Z,14.31
2022-09-06T10:07:16.692Z,14.56
2022-09-06T10:10:01.049Z,14.70
2022-09-06T10:12:41.774Z,14.97
2022-09-06T10:15:16.165Z,15.08
2022-09-06T10:17:53.010Z,15.17
2022-09-06T10:20:28.130Z,15.14
2022-09-06T10:23:09.299Z,15.01
2022-09-06T10:25:50.052Z,14.78
2022-09-06T10:28:33.738Z,14.52
2022-09-06T10:31:27.384Z,14.38
2022-09-06T10:34:05.389Z,14.29
2022-09-06T10:36:44.432Z,14.24
2022-09-06T10:39:42.173Z,13.99
2022-09-06T10:42:36.692Z,13.91
2022-09-06T10:45:38.939Z,13.82
2022-09-06T10:48:15.113Z,13.67
2022-09-06T10:50:58.948Z,13.55
2022-09-06T10:53:37.676Z,13.39
2022-09-06T10:56:29.187Z,13.34
2022-09-06T11:02:04.170Z,13.69
2022-09-06T11:07:18.871Z,14.05
2022-09-06T11:09:54.010Z,14.01
2022-09-06T11:12:43.381Z,13.87
2022-09-06T11:15:17.826Z,13.76
2022-09-06T11:18:10.990Z,13.62
2022-09-06T11:21:16.316Z,13.55
2022-09-06T11:24:05.055Z,13.54
2022-09-06T11:26:45.493Z,13.67
2022-09-06T11:29:26.335Z,13.60
2022-09-06T11:32:17.358Z,13.59
2022-09-06T11:34:37.495Z,13.57
2022-09-06T11:37:12.240Z,13.64
2022-09-06T11:42:34.640Z,14.00
2022-09-06T11:45:09.820Z,14.27
2022-09-06T11:47:44.195Z,14.42
2022-09-06T11:50:26.043Z,14.62
2022-09-06T11:53:00.903Z,14.74
2022-09-06T11:55:42.463Z,14.64
2022-09-06T11:58:20.456Z,14.37
2022-09-06T12:01:16.806Z,14.04
2022-09-06T12:04:09.436Z,13.73
2022-09-06T12:06:44.939Z,13.31
2022-09-06T12:09:31.957Z,13.03
2022-09-06T12:12:05.086Z,12.80
2022-09-06T12:14:43.160Z,12.65
2022-09-06T12:17:20.958Z,12.65
2022-09-06T12:20:08.523Z,12.69
2022-09-06T12:22:43.817Z,12.94
2022-09-06T12:25:21.899Z,13.20
2022-09-06T12:28:02.674Z,13.40
2022-09-06T12:30:42.365Z,13.66
2022-09-06T12:33:20.624Z,13.96
2022-09-06T12:38:30.391Z,13.92
2022-09-06T12:41:04.632Z,13.66
2022-09-06T12:43:37.839Z,13.45
2022-09-06T12:46:09.672Z,13.56
2022-09-06T12:48:43.657Z,13.11
2022-09-06T12:51:23.716Z,12.93
2022-09-06T12:54:05.149Z,12.77
2022-09-06T12:56:37.365Z,12.65
2022-09-06T12:59:15.342Z,12.54
2022-09-06T13:01:50.799Z,12.59
2022-09-06T13:04:29.203Z,12.71
2022-09-06T13:07:04.514Z,12.94
2022-09-06T13:09:38.707Z,13.20
2022-09-06T13:12:14.311Z,13.47
2022-09-06T13:14:46.853Z,13.73
2022-09-06T13:17:30.349Z,14.00
2022-09-06T13:20:21.252Z,14.18
2022-09-06T13:22:55.106Z,14.40
2022-09-06T13:25:28.066Z,14.59
2022-09-06T13:28:03.050Z,14.66
2022-09-06T13:30:45.835Z,14.75
2022-09-06T13:33:26.092Z,14.65
2022-09-06T13:36:16.073Z,14.49
2022-09-06T13:38:49.103Z,14.38
2022-09-06T13:41:30.511Z,14.26
2022-09-06T13:44:22.089Z,14.10
2022-09-06T13:46:55.398Z,13.87
2022-09-06T13:49:28.473Z,13.70
2022-09-06T13:52:04.322Z,13.54
2022-09-06T13:54:36.950Z,13.42
2022-09-06T13:57:10.016Z,13.28
2022-09-06T13:59:43.159Z,13.11
2022-09-06T14:02:20.425Z,12.97
2022-09-06T14:04:52.509Z,12.94
2022-09-06T14:07:24.743Z,12.88
2022-09-06T14:09:56.809Z,12.87
2022-09-06T14:12:29.518Z,12.86
2022-09-06T14:15:02.055Z,12.92
2022-09-06T14:17:34.840Z,13.14
2022-09-06T14:20:07.674Z,13.28
2022-09-06T14:22:40.961Z,13.36
2022-09-06T14:25:13.631Z,13.44
2022-09-06T14:27:47.491Z,13.50
2022-09-06T14:30:19.971Z,13.56
2022-09-06T14:32:53.181Z,13.59
2022-09-06T14:35:25.413Z,13.64
2022-09-06T14:37:57.713Z,13.62
2022-09-06T14:40:29.873Z,13.73
2022-09-06T14:43:02.038Z,13.95
2022-09-06T14:45:37.698Z,14.17
2022-09-06T14:48:09.758Z,14.33
2022-09-06T14:50:41.845Z,14.32
2022-09-06T14:53:38.766Z,14.24
2022-09-06T14:55:50.601Z,14.09
2022-09-06T14:58:22.951Z,13.90
2022-09-06T15:00:55.081Z,13.77
2022-09-06T15:03:27.378Z,13.57
2022-09-06T15:05:59.930Z,13.46
2022-09-06T15:08:32.114Z,13.57
2022-09-06T15:11:05.518Z,13.81
2022-09-06T15:13:38.098Z,13.66
2022-09-06T15:16:11.842Z,13.57
2022-09-06T15:18:44.044Z,13.46
2022-09-06T15:21:18.818Z,13.49
2022-09-06T15:23:52.827Z,13.54
2022-09-06T15:26:25.376Z,13.64
2022-09-06T15:28:57.450Z,13.73
2022-09-06T15:31:30.117Z,13.69
2022-09-06T15:34:02.976Z,13.64
2022-09-06T15:36:36.023Z,13.50
2022-09-06T15:39:08.678Z,13.24
2022-09-06T15:41:41.553Z,13.01
2022-09-06T15:44:16.178Z,12.80
2022-09-06T15:46:55.442Z,12.58
2022-09-06T15:49:32.349Z,12.54
2022-09-06T15:52:06.746Z,12.40
2022-09-06T15:54:56.925Z,12.23
2022-09-06T15:57:29.547Z,12.18
2022-09-06T16:00:03.082Z,12.12
2022-09-06T16:02:36.272Z,12.09
2022-09-06T16:05:09.409Z,12.02
2022-09-06T16:07:43.694Z,12.08
2022-09-06T16:10:18.054Z,12.13
2022-09-06T16:12:51.873Z,12.19
2022-09-06T16:15:25.022Z,12.15
2022-09-06T16:17:58.283Z,12.07
2022-09-06T16:20:33.348Z,11.99
2022-09-06T16:23:04.433Z,11.93
2022-09-06T16:25:36.809Z,11.84
2022-09-06T16:28:09.447Z,11.78
2022-09-06T16:30:45.403Z,11.71
2022-09-06T16:33:17.911Z,11.71
2022-09-06T16:35:50.944Z,11.72
2022-09-06T16:38:23.542Z,11.54
2022-09-06T16:40:56.486Z,11.36
2022-09-06T16:43:29.461Z,11.15
2022-09-06T16:46:04.512Z,10.99
2022-09-06T16:48:38.224Z,10.95
2022-09-06T16:51:19.025Z,10.93
2022-09-06T16:53:52.202Z,10.85
2022-09-06T16:56:27.884Z,10.77
2022-09-06T16:59:01.847Z,10.68
2022-09-06T17:01:36.984Z,10.52
2022-09-06T17:04:10.123Z,10.42
2022-09-06T17:06:45.180Z,10.52
2022-09-06T17:09:20.362Z,10.50
2022-09-06T17:11:51.623Z,10.49
2022-09-06T17:14:24.199Z,10.76
2022-09-06T17:17:06.391Z,10.57
2022-09-06T17:19:44.384Z,10.54
2022-09-06T17:22:17.490Z,10.55
2022-09-06T17:24:50.408Z,10.59
2022-09-06T17:27:24.124Z,10.64
2022-09-06T17:29:57.024Z,10.72
2022-09-06T17:32:29.706Z,10.73
2022-09-06T17:35:03.900Z,10.75
2022-09-06T17:37:39.495Z,10.82
2022-09-06T17:40:13.107Z,10.87
2022-09-06T17:42:46.180Z,10.89
2022-09-06T17:45:18.880Z,10.89
2022-09-06T17:47:51.495Z,10.88
2022-09-06T17:50:24.038Z,10.87
2022-09-06T17:52:56.904Z,10.91
2022-09-06T17:55:30.886Z,10.95
2022-09-06T17:58:03.316Z,10.95
2022-09-06T18:00:37.722Z,10.98
2022-09-06T18:03:09.425Z,10.96
2022-09-06T18:05:41.528Z,11.11
2022-09-06T18:08:13.603Z,10.94
2022-09-06T18:10:46.277Z,10.93
2022-09-06T18:13:18.466Z,10.98
2022-09-06T18:15:50.616Z,11.02
2022-09-06T18:18:22.730Z,10.98
2022-09-06T18:20:55.031Z,10.98
2022-09-06T18:23:27.400Z,10.97
2022-09-06T18:26:02.036Z,10.98
2022-09-06T18:28:35.001Z,10.97
2022-09-06T18:31:09.366Z,11.11
2022-09-06T18:33:42.824Z,10.94
2022-09-06T18:36:16.325Z,10.95
2022-09-06T18:38:48.797Z,10.93
2022-09-06T18:41:38.915Z,10.88
2022-09-06T18:44:11.709Z,10.87
2022-09-06T18:46:44.250Z,10.88
2022-09-06T18:49:17.658Z,10.87
2022-09-06T18:51:50.424Z,10.84
2022-09-06T18:54:23.256Z,10.80
2022-09-06T18:56:55.404Z,10.79
2022-09-06T18:59:27.669Z,10.78
2022-09-06T19:02:00.615Z,10.78
2022-09-06T19:04:32.851Z,10.79
2022-09-06T19:07:05.270Z,10.83
2022-09-06T19:09:37.509Z,10.78
2022-09-06T19:12:11.697Z,10.73
2022-09-06T19:14:44.055Z,10.67
2022-09-06T19:17:15.882Z,10.76
2022-09-06T19:19:48.204Z,10.59
2022-09-06T19:22:21.885Z,10.57
2022-09-06T19:24:54.302Z,10.48
2022-09-06T19:27:27.453Z,10.50
2022-09-06T19:29:59.515Z,10.53
2022-09-06T19:32:34.197Z,10.47
2022-09-06T19:35:06.650Z,10.52
2022-09-06T19:37:39.035Z,10.49
2022-09-06T19:40:11.905Z,10.50
2022-09-06T19:42:44.356Z,10.46
2022-09-06T19:45:16.498Z,10.46
2022-09-06T19:47:48.520Z,10.50
2022-09-06T19:50:20.898Z,10.41
2022-09-06T19:52:53.183Z,10.44
2022-09-06T19:55:25.145Z,10.36
2022-09-06T19:57:57.848Z,10.38
2022-09-06T20:00:34.786Z,10.36
2022-09-06T20:03:03.730Z,10.34
2022-09-06T20:05:36.389Z,10.32
2022-09-06T20:08:08.632Z,10.28
2022-09-06T20:10:40.926Z,10.30
2022-09-06T20:13:13.054Z,10.29
2022-09-06T20:15:45.146Z,10.24
2022-09-06T20:18:18.874Z,10.21
2022-09-06T20:21:01.143Z,10.14
2022-09-06T20:23:34.860Z,10.19
2022-09-06T20:26:15.148Z,10.17
2022-09-06T20:28:48.112Z,10.18
2022-09-06T20:31:20.977Z,10.18
2022-09-06T20:33:53.382Z,10.17
2022-09-06T20:36:25.427Z,10.15
2022-09-06T20:38:57.907Z,10.17
2022-09-06T20:41:30.452Z,10.14
2022-09-06T20:44:02.938Z,10.13
2022-09-06T20:46:36.243Z,10.12
2022-09-06T20:49:09.178Z,10.10
2022-09-06T20:51:43.362Z,10.06
2022-09-06T20:54:16.467Z,10.00
2022-09-06T20:56:49.453Z,9.99
2022-09-06T20:59:22.957Z,10.17
2022-09-06T21:01:56.111Z,10.03
2022-09-06T21:04:28.311Z,9.98
2022-09-06T21:07:00.573Z,9.97
2022-09-06T21:09:32.990Z,9.97
2022-09-06T21:12:06.663Z,10.00
2022-09-06T21:14:38.813Z,9.94
2022-09-06T21:17:11.650Z,9.94
2022-09-06T21:19:43.990Z,9.97
2022-09-06T21:22:16.090Z,9.98
2022-09-06T21:24:49.299Z,9.95
2022-09-06T21:27:21.433Z,9.97
2022-09-06T21:29:53.791Z,9.95
2022-09-06T21:32:26.970Z,9.92
2022-09-06T21:34:59.062Z,9.90
2022-09-06T21:37:33.978Z,9.90
2022-09-06T21:40:06.626Z,9.83
2022-09-06T21:42:38.691Z,9.85
2022-09-06T21:45:11.586Z,9.84
2022-09-06T21:47:43.593Z,9.85
2022-09-06T21:50:15.851Z,9.81
2022-09-06T21:52:48.038Z,9.82
2022-09-06T21:55:20.326Z,9.82
2022-09-06T21:57:54.351Z,9.83
2022-09-06T22:00:26.557Z,9.82
2022-09-06T22:02:59.144Z,9.73
2022-09-06T22:05:31.802Z,9.66
2022-09-06T22:08:04.210Z,9.63
2022-09-06T22:10:36.227Z,9.62
2022-09-06T22:13:08.477Z,9.63
2022-09-06T22:15:41.395Z,9.66
2022-09-06T22:18:14.076Z,9.66
2022-09-06T22:20:46.296Z,9.69
2022-09-06T22:23:18.422Z,9.69
2022-09-06T22:25:52.167Z,9.69
2022-09-06T22:28:24.469Z,9.73
2022-09-06T22:30:56.742Z,9.72
2022-09-06T22:33:29.452Z,9.75
2022-09-06T22:36:01.805Z,9.69
2022-09-06T22:38:34.257Z,9.64
2022-09-06T22:41:06.646Z,9.68
2022-09-06T22:43:38.777Z,9.63
2022-09-06T22:46:13.935Z,9.58
2022-09-06T22:48:46.119Z,9.62
2022-09-06T22:51:18.665Z,9.61
2022-09-06T22:53:50.946Z,9.50
2022-09-06T22:56:23.101Z,9.36
2022-09-06T22:58:55.184Z,9.20
2022-09-06T23:01:27.384Z,9.10
2022-09-06T23:03:59.747Z,9.05
2022-09-06T23:06:31.791Z,9.00
2022-09-06T23:09:05.038Z,8.98
2022-09-06T23:11:37.205Z,8.99
2022-09-06T23:14:09.271Z,8.92
2022-09-06T23:16:41.680Z,8.85
2022-09-06T23:19:15.295Z,8.83
2022-09-06T23:21:47.811Z,8.78
2022-09-06T23:24:19.823Z,8.75
2022-09-06T23:26:53.829Z,8.74
2022-09-06T23:29:25.945Z,8.72
2022-09-06T23:31:58.077Z,8.75
2022-09-06T23:34:31.232Z,8.73
2022-09-06T23:37:03.427Z,8.78
2022-09-06T23:39:35.502Z,8.73
2022-09-06T23:42:07.914Z,8.71
2022-09-06T23:44:40.031Z,8.71
2022-09-06T23:47:12.176Z,8.71
2022-09-06T23:49:45.572Z,8.73
2022-09-06T23:52:17.941Z,8.74
2022-09-06T23:54:50.468Z,8.74
2022-09-06T23:57:22.584Z,8.74
2022-09-06T23:59:54.648Z,8.76
